Nearby METAR Reports

 

KSDF - Louisville, Kentucky, USA
Distance from station: NNW 19mi, 31km
Updated: Sat, 24-Aug-2019 5:56pm EDT
Mostly cloudy
Mostly cloudy
 Wind from ENE
Wind: ENE 12 mph , 19 km/h
Temperature: 81°F , 27°C
Dew Point: 54°F , 12°C
Humidity: 39%
Barometer: 30.08 inHg , 1018.6 hPa
Clouds: Mostly cloudy
Visibility: 10 miles , 16 km
Cloud details: Mostly cloudy 25000 ft
2019/08/24 21:56 KSDF 242156Z 07010KT 10SM BKN250 27/12 A3008 RMK AO2 SLP181 T02720117 $
KLOU - Louisville/Bowmn, Kentucky, USA
Distance from station: NNW 20mi, 33km
Updated: Sat, 24-Aug-2019 5:53pm EDT
Clear
Clear
 Wind from ENE
Wind: ENE 14 mph , 22 km/h, Gust: 23 mph , 37 km/h
Temperature: 81°F , 27°C
Dew Point: 54°F , 12°C
Humidity: 39%
Barometer: 30.08 inHg , 1018.6 hPa
Clouds: Clear
Visibility: 10 miles , 16 km
2019/08/24 21:53 KLOU 242153Z 07012G20KT 10SM CLR 27/12 A3008 RMK AO2 SLP183 T02670117
 
KFTK - Fort Knox/Godman, Kentucky, USA
Distance from station: W 21mi, 33km
Updated: Sat, 24-Aug-2019 5:56pm EDT
Clear
Clear
 Wind from NE
Wind: NE 8 mph , 13 km/h
Temperature: 79°F , 26°C
Dew Point: 55°F , 13°C
Humidity: 45%
Barometer: 30.09 inHg , 1019 hPa
Clouds: Clear
Visibility: 10 miles , 16 km
2019/08/24 21:56 KFTK 242156Z AUTO 05007KT 10SM CLR 26/13 A3009 RMK AO2 SLP188 T02570125
KEKX - Elizabeth, Kentucky, USA
Distance from station: SW 21mi, 34km
Updated: Sat, 24-Aug-2019 6:35pm EDT
Clear
Clear
 Wind from NE
Wind: NE 7 mph , 11 km/h
Temperature: 77°F , 25°C
Dew Point: 54°F , 12°C
Humidity: 44%
Barometer: 30.08 inHg , 1018.6 hPa
Clouds: Clear
Visibility: 10 miles , 16 km
2019/08/24 22:35 KEKX 242235Z AUTO 05006KT 10SM CLR 25/12 A3008 RMK AO2 T02470121
 
K6I2 - Springfield, Kentucky, USA
Distance from station: SE 28mi, 44km
Updated: Sat, 24-Aug-2019 6:25pm EDT
Clear
Clear
 Wind from NE
Wind: NE 3 mph , 6 km/h
Temperature: 77°F , 25°C
Dew Point: 55°F , 13°C
Humidity: 47%
Barometer: 30.09 inHg , 1019 hPa
Clouds: Clear
2019/08/24 22:25 K6I2 242225Z AUTO 05003KT CLR 25/13 A3009 RMK AO2
KFFT - Frankfort, Kentucky, USA
Distance from station: ENE 42mi, 67km
Updated: Sat, 24-Aug-2019 5:53pm EDT
Clear
Clear
 Wind from NE
Wind: NE 10 mph , 17 km/h, Gust: 21 mph , 33 km/h
Temperature: 81°F , 27°C
Heat Index: 81°F , 27°C
Dew Point: 55°F , 13°C
Humidity: 42%
Barometer: 30.09 inHg , 1019 hPa
Clouds: Clear
Visibility: 10 miles , 16 km
2019/08/24 21:53 KFFT 242153Z AUTO 05009G18KT 10SM CLR 27/13 A3009 RMK AO2 SLP184 T02670133